Decoded Metar for KBFD (BRADFORD in PA, USA) (IATA:BFD) | Meteo·Mobile Aviation Weather
aviador You're here:

KBFD Decoded Metar

BRADFORD in PA, USA
Report Time2019-07-22 18:18:00
UTC Time2019-07-22 18:29:52
Flight Rules ifr IFR
Wind360° at 06 kt
W.Decomp.*RWY 05: 4.7 kt HW 3.8 kt LCW
RWY 32: 3.8 kt HW 4.7 kt RCW
Visibility4023 m
Phenomena:Rain
Mist
Clouds:Overcast 005 Hf
Ceiling500 ft
Temp16°C (ISA +5)
Dew Point16°C (100% RH)
AAT15.8°C
QNH1013 hPa
Density Alt2,989 ft
Elevation2,123 ft
Report Wrong Elevation
Raw Report
KBFD 221818Z AUTO 36006KT 2 1/2SM RA BR OVC005 16/16 A2990 RMK AO2
CIG 003V008 P0006 T01610161=

Extra information for KBFD:More info

Metar Taf Metar & Taf Last 4 Metars F.Rules Stats Wind Profile Meteogram Temp Stats Airport Information Weather charts Add Link Nearby VenuesMetar ALERT Operation Metar Decoded Social comments

AIRNAV info for KBFD